sensor_id;sensor_type;location;lat;lon;timestamp;P1;durP1;ratioP1;P2;durP2;ratioP2
54157;SDS011;40065;49.894;10.358;2022-08-19T00:02:33;22.63;;;16.48;;
54157;SDS011;40065;49.894;10.358;2022-08-19T00:07:35;21.08;;;15.95;;
54157;SDS011;40065;49.894;10.358;2022-08-19T00:12:38;22.87;;;16.67;;
54157;SDS011;40065;49.894;10.358;2022-08-19T00:17:47;22.83;;;16.75;;
54157;SDS011;40065;49.894;10.358;2022-08-19T00:22:49;24.35;;;17.10;;
54157;SDS011;40065;49.894;10.358;2022-08-19T00:27:53;20.45;;;14.80;;
54157;SDS011;40065;49.894;10.358;2022-08-19T00:32:55;18.88;;;13.88;;
54157;SDS011;40065;49.894;10.358;2022-08-19T00:37:57;21.02;;;16.08;;
54157;SDS011;40065;49.894;10.358;2022-08-19T00:42:59;16.45;;;13.13;;
54157;SDS011;40065;49.894;10.358;2022-08-19T00:48:01;14.85;;;11.40;;
54157;SDS011;40065;49.894;10.358;2022-08-19T00:58:20;16.60;;;12.32;;
54157;SDS011;40065;49.894;10.358;2022-08-19T01:03:25;20.10;;;15.48;;
54157;SDS011;40065;49.894;10.358;2022-08-19T01:08:27;18.05;;;13.75;;
54157;SDS011;40065;49.894;10.358;2022-08-19T01:13:30;18.63;;;13.68;;
54157;SDS011;40065;49.894;10.358;2022-08-19T01:18:50;16.17;;;13.00;;
54157;SDS011;40065;49.894;10.358;2022-08-19T01:23:51;17.23;;;13.60;;
54157;SDS011;40065;49.894;10.358;2022-08-19T01:28:55;13.85;;;11.60;;
54157;SDS011;40065;49.894;10.358;2022-08-19T01:34:01;16.77;;;13.15;;
54157;SDS011;40065;49.894;10.358;2022-08-19T01:39:06;20.33;;;15.37;;
54157;SDS011;40065;49.894;10.358;2022-08-19T01:44:11;16.20;;;12.15;;
54157;SDS011;40065;49.894;10.358;2022-08-19T01:49:20;17.80;;;12.75;;
54157;SDS011;40065;49.894;10.358;2022-08-19T01:54:23;17.02;;;12.35;;
54157;SDS011;40065;49.894;10.358;2022-08-19T01:59:28;14.90;;;11.63;;
54157;SDS011;40065;49.894;10.358;2022-08-19T02:04:31;16.37;;;12.27;;
54157;SDS011;40065;49.894;10.358;2022-08-19T02:09:33;17.90;;;13.50;;
54157;SDS011;40065;49.894;10.358;2022-08-19T02:14:35;17.70;;;13.57;;
54157;SDS011;40065;49.894;10.358;2022-08-19T02:19:37;15.40;;;11.75;;
54157;SDS011;40065;49.894;10.358;2022-08-19T02:24:41;15.93;;;12.57;;
54157;SDS011;40065;49.894;10.358;2022-08-19T02:29:45;16.95;;;12.65;;
54157;SDS011;40065;49.894;10.358;2022-08-19T02:34:48;15.80;;;12.02;;
54157;SDS011;40065;49.894;10.358;2022-08-19T02:39:50;15.75;;;12.70;;
54157;SDS011;40065;49.894;10.358;2022-08-19T02:44:52;13.88;;;11.35;;
54157;SDS011;40065;49.894;10.358;2022-08-19T02:49:57;16.25;;;12.10;;
54157;SDS011;40065;49.894;10.358;2022-08-19T02:54:58;16.55;;;12.88;;
54157;SDS011;40065;49.894;10.358;2022-08-19T03:00:03;19.88;;;14.80;;
54157;SDS011;40065;49.894;10.358;2022-08-19T03:05:12;15.25;;;11.65;;
54157;SDS011;40065;49.894;10.358;2022-08-19T03:10:14;13.57;;;11.25;;
54157;SDS011;40065;49.894;10.358;2022-08-19T03:15:16;14.35;;;11.32;;
54157;SDS011;40065;49.894;10.358;2022-08-19T03:20:18;16.17;;;13.18;;
54157;SDS011;40065;49.894;10.358;2022-08-19T03:25:20;19.90;;;14.48;;
54157;SDS011;40065;49.894;10.358;2022-08-19T03:30:22;18.02;;;14.07;;
54157;SDS011;40065;49.894;10.358;2022-08-19T03:35:24;16.45;;;12.93;;
54157;SDS011;40065;49.894;10.358;2022-08-19T03:40:25;18.58;;;14.30;;
54157;SDS011;40065;49.894;10.358;2022-08-19T03:45:27;17.85;;;12.52;;
54157;SDS011;40065;49.894;10.358;2022-08-19T03:50:30;16.80;;;12.80;;
54157;SDS011;40065;49.894;10.358;2022-08-19T03:55:32;19.13;;;15.00;;
54157;SDS011;40065;49.894;10.358;2022-08-19T04:00:33;17.67;;;13.57;;
54157;SDS011;40065;49.894;10.358;2022-08-19T04:05:36;19.13;;;14.85;;
54157;SDS011;40065;49.894;10.358;2022-08-19T04:10:39;21.37;;;15.93;;
54157;SDS011;40065;49.894;10.358;2022-08-19T04:15:43;17.58;;;13.73;;
54157;SDS011;40065;49.894;10.358;2022-08-19T04:20:47;18.27;;;14.48;;
54157;SDS011;40065;49.894;10.358;2022-08-19T04:25:50;18.87;;;14.43;;
54157;SDS011;40065;49.894;10.358;2022-08-19T04:30:53;15.95;;;12.88;;
54157;SDS011;40065;49.894;10.358;2022-08-19T04:35:56;15.73;;;12.60;;
54157;SDS011;40065;49.894;10.358;2022-08-19T04:40:59;15.40;;;11.98;;
54157;SDS011;40065;49.894;10.358;2022-08-19T04:46:19;15.20;;;12.15;;
54157;SDS011;40065;49.894;10.358;2022-08-19T04:51:41;16.13;;;12.50;;
54157;SDS011;40065;49.894;10.358;2022-08-19T04:56:45;15.65;;;12.30;;
54157;SDS011;40065;49.894;10.358;2022-08-19T05:01:47;17.88;;;13.75;;
54157;SDS011;40065;49.894;10.358;2022-08-19T05:06:51;19.77;;;14.95;;
54157;SDS011;40065;49.894;10.358;2022-08-19T05:11:59;18.75;;;14.55;;
54157;SDS011;40065;49.894;10.358;2022-08-19T05:17:01;21.45;;;15.60;;
54157;SDS011;40065;49.894;10.358;2022-08-19T05:22:23;17.80;;;14.20;;
54157;SDS011;40065;49.894;10.358;2022-08-19T05:27:35;15.63;;;12.93;;
54157;SDS011;40065;49.894;10.358;2022-08-19T05:32:38;20.40;;;15.85;;
54157;SDS011;40065;49.894;10.358;2022-08-19T05:37:40;23.77;;;16.50;;
54157;SDS011;40065;49.894;10.358;2022-08-19T05:42:42;18.85;;;14.90;;
54157;SDS011;40065;49.894;10.358;2022-08-19T05:47:44;19.70;;;14.93;;
54157;SDS011;40065;49.894;10.358;2022-08-19T05:52:46;17.73;;;12.98;;
54157;SDS011;40065;49.894;10.358;2022-08-19T05:57:51;18.63;;;13.73;;
54157;SDS011;40065;49.894;10.358;2022-08-19T06:02:52;17.38;;;13.43;;
54157;SDS011;40065;49.894;10.358;2022-08-19T06:08:12;15.43;;;12.63;;
54157;SDS011;40065;49.894;10.358;2022-08-19T06:13:14;17.98;;;14.27;;
54157;SDS011;40065;49.894;10.358;2022-08-19T06:18:16;15.95;;;13.73;;
54157;SDS011;40065;49.894;10.358;2022-08-19T06:23:18;13.60;;;11.50;;
54157;SDS011;40065;49.894;10.358;2022-08-19T06:28:24;15.48;;;12.15;;
54157;SDS011;40065;49.894;10.358;2022-08-19T06:33:26;14.68;;;10.90;;
54157;SDS011;40065;49.894;10.358;2022-08-19T06:38:28;16.95;;;13.27;;
54157;SDS011;40065;49.894;10.358;2022-08-19T06:43:30;16.10;;;12.45;;
54157;SDS011;40065;49.894;10.358;2022-08-19T06:48:31;13.70;;;10.90;;
54157;SDS011;40065;49.894;10.358;2022-08-19T06:53:43;17.63;;;14.25;;
54157;SDS011;40065;49.894;10.358;2022-08-19T06:58:54;15.98;;;12.25;;
54157;SDS011;40065;49.894;10.358;2022-08-19T07:03:56;14.45;;;12.18;;
54157;SDS011;40065;49.894;10.358;2022-08-19T07:08:58;23.00;;;14.27;;
54157;SDS011;40065;49.894;10.358;2022-08-19T07:14:01;15.00;;;11.88;;
54157;SDS011;40065;49.894;10.358;2022-08-19T07:19:03;18.83;;;12.67;;
54157;SDS011;40065;49.894;10.358;2022-08-19T07:24:16;18.75;;;13.30;;
54157;SDS011;40065;49.894;10.358;2022-08-19T07:29:19;13.40;;;11.50;;
54157;SDS011;40065;49.894;10.358;2022-08-19T07:34:26;15.65;;;12.82;;
54157;SDS011;40065;49.894;10.358;2022-08-19T07:44:33;15.65;;;12.68;;
54157;SDS011;40065;49.894;10.358;2022-08-19T07:49:35;17.02;;;14.10;;
54157;SDS011;40065;49.894;10.358;2022-08-19T07:54:37;19.10;;;15.32;;
54157;SDS011;40065;49.894;10.358;2022-08-19T07:59:40;19.25;;;15.82;;
54157;SDS011;40065;49.894;10.358;2022-08-19T08:04:42;19.13;;;16.27;;
54157;SDS011;40065;49.894;10.358;2022-08-19T08:10:03;20.45;;;17.05;;
54157;SDS011;40065;49.894;10.358;2022-08-19T08:15:21;19.60;;;17.50;;
54157;SDS011;40065;49.894;10.358;2022-08-19T08:20:25;18.55;;;15.43;;
54157;SDS011;40065;49.894;10.358;2022-08-19T08:25:27;19.45;;;16.92;;
54157;SDS011;40065;49.894;10.358;2022-08-19T08:30:32;24.42;;;18.30;;
54157;SDS011;40065;49.894;10.358;2022-08-19T08:35:37;17.10;;;15.27;;
54157;SDS011;40065;49.894;10.358;2022-08-19T08:40:47;21.17;;;17.58;;
54157;SDS011;40065;49.894;10.358;2022-08-19T08:51:05;22.80;;;19.83;;
54157;SDS011;40065;49.894;10.358;2022-08-19T08:56:11;23.23;;;20.73;;
54157;SDS011;40065;49.894;10.358;2022-08-19T09:01:18;20.30;;;17.52;;
54157;SDS011;40065;49.894;10.358;2022-08-19T09:16:58;25.98;;;22.02;;
54157;SDS011;40065;49.894;10.358;2022-08-19T09:22:00;22.67;;;19.15;;
54157;SDS011;40065;49.894;10.358;2022-08-19T09:27:02;24.65;;;21.95;;
54157;SDS011;40065;49.894;10.358;2022-08-19T09:32:19;24.52;;;21.60;;
54157;SDS011;40065;49.894;10.358;2022-08-19T09:37:27;24.92;;;21.90;;
54157;SDS011;40065;49.894;10.358;2022-08-19T09:42:29;23.77;;;20.67;;
54157;SDS011;40065;49.894;10.358;2022-08-19T09:47:36;23.30;;;19.85;;
54157;SDS011;40065;49.894;10.358;2022-08-19T09:52:41;21.35;;;19.15;;
54157;SDS011;40065;49.894;10.358;2022-08-19T09:57:55;28.55;;;22.20;;
54157;SDS011;40065;49.894;10.358;2022-08-19T10:02:57;24.08;;;20.02;;
54157;SDS011;40065;49.894;10.358;2022-08-19T10:07:59;22.90;;;19.73;;
54157;SDS011;40065;49.894;10.358;2022-08-19T10:13:04;19.88;;;16.92;;
54157;SDS011;40065;49.894;10.358;2022-08-19T10:18:08;21.27;;;17.58;;
54157;SDS011;40065;49.894;10.358;2022-08-19T10:23:10;19.60;;;17.60;;
54157;SDS011;40065;49.894;10.358;2022-08-19T10:28:12;22.98;;;20.17;;
54157;SDS011;40065;49.894;10.358;2022-08-19T10:33:13;14.68;;;13.18;;
54157;SDS011;40065;49.894;10.358;2022-08-19T10:38:36;18.02;;;16.15;;
54157;SDS011;40065;49.894;10.358;2022-08-19T10:43:39;19.83;;;17.73;;
54157;SDS011;40065;49.894;10.358;2022-08-19T10:48:42;23.23;;;19.33;;
54157;SDS011;40065;49.894;10.358;2022-08-19T10:53:45;24.85;;;21.58;;
54157;SDS011;40065;49.894;10.358;2022-08-19T10:58:48;26.65;;;22.30;;
54157;SDS011;40065;49.894;10.358;2022-08-19T11:03:50;22.90;;;19.00;;
54157;SDS011;40065;49.894;10.358;2022-08-19T11:08:55;27.10;;;21.67;;
54157;SDS011;40065;49.894;10.358;2022-08-19T11:13:57;20.17;;;18.08;;
54157;SDS011;40065;49.894;10.358;2022-08-19T11:18:59;21.23;;;18.30;;
54157;SDS011;40065;49.894;10.358;2022-08-19T11:24:21;20.02;;;17.73;;
54157;SDS011;40065;49.894;10.358;2022-08-19T11:29:24;22.98;;;19.63;;
54157;SDS011;40065;49.894;10.358;2022-08-19T11:34:27;19.77;;;17.42;;
54157;SDS011;40065;49.894;10.358;2022-08-19T11:39:30;20.52;;;17.95;;
54157;SDS011;40065;49.894;10.358;2022-08-19T11:44:33;17.25;;;14.90;;
54157;SDS011;40065;49.894;10.358;2022-08-19T11:49:37;20.70;;;17.58;;
54157;SDS011;40065;49.894;10.358;2022-08-19T11:54:38;18.42;;;16.45;;
54157;SDS011;40065;49.894;10.358;2022-08-19T11:59:40;17.50;;;15.43;;
54157;SDS011;40065;49.894;10.358;2022-08-19T12:04:42;17.88;;;15.98;;
54157;SDS011;40065;49.894;10.358;2022-08-19T12:09:44;11.48;;;10.27;;
54157;SDS011;40065;49.894;10.358;2022-08-19T12:14:48;15.07;;;13.48;;
54157;SDS011;40065;49.894;10.358;2022-08-19T12:19:52;15.25;;;13.50;;
54157;SDS011;40065;49.894;10.358;2022-08-19T12:24:55;13.82;;;12.13;;
54157;SDS011;40065;49.894;10.358;2022-08-19T12:29:57;15.15;;;13.55;;
54157;SDS011;40065;49.894;10.358;2022-08-19T12:35:01;14.07;;;12.57;;
54157;SDS011;40065;49.894;10.358;2022-08-19T12:40:04;11.60;;;9.35;;
54157;SDS011;40065;49.894;10.358;2022-08-19T12:45:07;8.88;;;7.97;;
54157;SDS011;40065;49.894;10.358;2022-08-19T12:50:13;9.95;;;8.93;;
54157;SDS011;40065;49.894;10.358;2022-08-19T12:55:14;12.35;;;9.43;;
54157;SDS011;40065;49.894;10.358;2022-08-19T13:00:18;10.02;;;8.88;;
54157;SDS011;40065;49.894;10.358;2022-08-19T13:05:23;11.55;;;9.45;;
54157;SDS011;40065;49.894;10.358;2022-08-19T13:10:28;8.65;;;7.75;;
54157;SDS011;40065;49.894;10.358;2022-08-19T13:15:37;8.32;;;6.97;;
54157;SDS011;40065;49.894;10.358;2022-08-19T13:20:42;8.43;;;6.40;;
54157;SDS011;40065;49.894;10.358;2022-08-19T13:26:00;6.20;;;5.60;;
54157;SDS011;40065;49.894;10.358;2022-08-19T13:31:04;7.20;;;5.32;;
54157;SDS011;40065;49.894;10.358;2022-08-19T13:36:25;5.75;;;4.28;;
54157;SDS011;40065;49.894;10.358;2022-08-19T13:41:27;6.10;;;4.88;;
54157;SDS011;40065;49.894;10.358;2022-08-19T13:51:32;4.90;;;3.95;;
54157;SDS011;40065;49.894;10.358;2022-08-19T13:56:34;7.88;;;5.28;;
54157;SDS011;40065;49.894;10.358;2022-08-19T14:01:41;5.97;;;4.60;;
54157;SDS011;40065;49.894;10.358;2022-08-19T14:06:43;4.10;;;3.60;;
54157;SDS011;40065;49.894;10.358;2022-08-19T14:11:45;5.72;;;4.25;;
54157;SDS011;40065;49.894;10.358;2022-08-19T14:16:48;4.18;;;3.13;;
54157;SDS011;40065;49.894;10.358;2022-08-19T14:21:50;5.90;;;3.10;;
54157;SDS011;40065;49.894;10.358;2022-08-19T14:26:52;9.85;;;2.60;;
54157;SDS011;40065;49.894;10.358;2022-08-19T14:31:54;2.42;;;2.00;;
54157;SDS011;40065;49.894;10.358;2022-08-19T14:36:57;3.10;;;2.10;;
54157;SDS011;40065;49.894;10.358;2022-08-19T14:42:06;3.00;;;1.92;;
54157;SDS011;40065;49.894;10.358;2022-08-19T14:47:12;2.92;;;2.00;;
54157;SDS011;40065;49.894;10.358;2022-08-19T14:52:14;2.65;;;1.90;;
54157;SDS011;40065;49.894;10.358;2022-08-19T14:57:16;2.42;;;1.65;;
54157;SDS011;40065;49.894;10.358;2022-08-19T15:02:18;2.83;;;1.70;;
54157;SDS011;40065;49.894;10.358;2022-08-19T15:07:36;2.00;;;1.60;;
54157;SDS011;40065;49.894;10.358;2022-08-19T15:12:39;2.63;;;1.70;;
54157;SDS011;40065;49.894;10.358;2022-08-19T15:17:41;2.25;;;1.50;;
54157;SDS011;40065;49.894;10.358;2022-08-19T15:22:46;4.03;;;1.50;;
54157;SDS011;40065;49.894;10.358;2022-08-19T15:27:48;2.67;;;1.90;;
54157;SDS011;40065;49.894;10.358;2022-08-19T15:32:51;2.47;;;1.70;;
54157;SDS011;40065;49.894;10.358;2022-08-19T15:37:54;1.90;;;1.40;;
54157;SDS011;40065;49.894;10.358;2022-08-19T15:42:57;4.70;;;1.80;;
54157;SDS011;40065;49.894;10.358;2022-08-19T15:47:59;3.88;;;1.60;;
54157;SDS011;40065;49.894;10.358;2022-08-19T15:53:03;2.22;;;1.50;;
54157;SDS011;40065;49.894;10.358;2022-08-19T15:58:09;1.85;;;1.23;;
54157;SDS011;40065;49.894;10.358;2022-08-19T16:03:31;2.13;;;1.50;;
54157;SDS011;40065;49.894;10.358;2022-08-19T16:08:53;3.00;;;1.67;;
54157;SDS011;40065;49.894;10.358;2022-08-19T16:13:57;2.83;;;1.55;;
54157;SDS011;40065;49.894;10.358;2022-08-19T16:19:02;2.17;;;1.70;;
54157;SDS011;40065;49.894;10.358;2022-08-19T16:24:12;2.60;;;1.60;;
54157;SDS011;40065;49.894;10.358;2022-08-19T16:29:16;2.85;;;2.25;;
54157;SDS011;40065;49.894;10.358;2022-08-19T16:34:34;4.35;;;2.58;;
54157;SDS011;40065;49.894;10.358;2022-08-19T16:39:38;6.15;;;2.92;;
54157;SDS011;40065;49.894;10.358;2022-08-19T16:44:44;4.53;;;2.85;;
54157;SDS011;40065;49.894;10.358;2022-08-19T16:49:46;6.15;;;3.60;;
54157;SDS011;40065;49.894;10.358;2022-08-19T16:54:54;3.63;;;3.25;;
54157;SDS011;40065;49.894;10.358;2022-08-19T16:59:56;5.55;;;3.88;;
54157;SDS011;40065;49.894;10.358;2022-08-19T17:04:58;7.53;;;4.55;;
54157;SDS011;40065;49.894;10.358;2022-08-19T17:10:03;6.40;;;5.15;;
54157;SDS011;40065;49.894;10.358;2022-08-19T17:15:05;6.45;;;4.85;;
54157;SDS011;40065;49.894;10.358;2022-08-19T17:20:11;6.35;;;4.78;;
54157;SDS011;40065;49.894;10.358;2022-08-19T17:25:12;7.53;;;5.65;;
54157;SDS011;40065;49.894;10.358;2022-08-19T17:30:16;5.37;;;4.87;;
54157;SDS011;40065;49.894;10.358;2022-08-19T17:35:18;6.45;;;4.95;;
54157;SDS011;40065;49.894;10.358;2022-08-19T17:40:24;7.15;;;5.53;;
54157;SDS011;40065;49.894;10.358;2022-08-19T17:45:30;7.82;;;4.97;;
54157;SDS011;40065;49.894;10.358;2022-08-19T17:50:32;8.98;;;7.60;;
54157;SDS011;40065;49.894;10.358;2022-08-19T17:55:35;5.13;;;3.67;;
54157;SDS011;40065;49.894;10.358;2022-08-19T18:00:37;4.57;;;3.67;;
54157;SDS011;40065;49.894;10.358;2022-08-19T18:05:53;4.57;;;3.45;;
54157;SDS011;40065;49.894;10.358;2022-08-19T18:10:57;5.45;;;3.55;;
54157;SDS011;40065;49.894;10.358;2022-08-19T18:16:00;4.07;;;3.23;;
54157;SDS011;40065;49.894;10.358;2022-08-19T18:21:02;4.43;;;3.20;;
54157;SDS011;40065;49.894;10.358;2022-08-19T18:26:04;4.10;;;3.70;;
54157;SDS011;40065;49.894;10.358;2022-08-19T18:31:06;4.32;;;3.80;;
54157;SDS011;40065;49.894;10.358;2022-08-19T18:36:08;6.20;;;4.07;;
54157;SDS011;40065;49.894;10.358;2022-08-19T18:41:10;8.60;;;4.97;;
54157;SDS011;40065;49.894;10.358;2022-08-19T18:46:31;3.90;;;3.50;;
54157;SDS011;40065;49.894;10.358;2022-08-19T18:51:52;6.15;;;4.68;;
54157;SDS011;40065;49.894;10.358;2022-08-19T18:56:55;5.88;;;4.22;;
54157;SDS011;40065;49.894;10.358;2022-08-19T19:01:57;5.03;;;4.40;;
54157;SDS011;40065;49.894;10.358;2022-08-19T19:07:00;6.30;;;4.87;;
54157;SDS011;40065;49.894;10.358;2022-08-19T19:12:03;6.45;;;4.85;;
54157;SDS011;40065;49.894;10.358;2022-08-19T19:17:11;5.72;;;4.82;;
54157;SDS011;40065;49.894;10.358;2022-08-19T19:22:16;5.82;;;5.10;;
54157;SDS011;40065;49.894;10.358;2022-08-19T19:27:20;6.82;;;5.63;;
54157;SDS011;40065;49.894;10.358;2022-08-19T19:32:23;8.55;;;5.90;;
54157;SDS011;40065;49.894;10.358;2022-08-19T19:37:28;7.68;;;6.80;;
54157;SDS011;40065;49.894;10.358;2022-08-19T19:42:30;8.45;;;6.88;;
54157;SDS011;40065;49.894;10.358;2022-08-19T19:47:32;8.30;;;7.20;;
54157;SDS011;40065;49.894;10.358;2022-08-19T19:52:34;11.40;;;7.97;;
54157;SDS011;40065;49.894;10.358;2022-08-19T19:57:35;8.55;;;7.45;;
54157;SDS011;40065;49.894;10.358;2022-08-19T20:02:39;10.40;;;8.55;;
54157;SDS011;40065;49.894;10.358;2022-08-19T20:07:41;12.52;;;9.15;;
54157;SDS011;40065;49.894;10.358;2022-08-19T20:13:02;11.40;;;9.75;;
54157;SDS011;40065;49.894;10.358;2022-08-19T20:18:05;9.75;;;8.60;;
54157;SDS011;40065;49.894;10.358;2022-08-19T20:23:07;10.73;;;9.10;;
54157;SDS011;40065;49.894;10.358;2022-08-19T20:28:09;9.85;;;7.90;;
54157;SDS011;40065;49.894;10.358;2022-08-19T20:33:12;9.77;;;7.82;;
54157;SDS011;40065;49.894;10.358;2022-08-19T20:38:14;8.40;;;7.50;;
54157;SDS011;40065;49.894;10.358;2022-08-19T20:43:16;8.85;;;7.20;;
54157;SDS011;40065;49.894;10.358;2022-08-19T20:48:18;8.15;;;7.07;;
54157;SDS011;40065;49.894;10.358;2022-08-19T20:53:20;7.43;;;6.63;;
54157;SDS011;40065;49.894;10.358;2022-08-19T20:58:24;7.97;;;6.10;;
54157;SDS011;40065;49.894;10.358;2022-08-19T21:03:27;7.32;;;6.03;;
54157;SDS011;40065;49.894;10.358;2022-08-19T21:08:30;8.82;;;6.22;;
54157;SDS011;40065;49.894;10.358;2022-08-19T21:13:33;8.13;;;6.50;;
54157;SDS011;40065;49.894;10.358;2022-08-19T21:18:35;7.70;;;6.90;;
54157;SDS011;40065;49.894;10.358;2022-08-19T21:23:37;7.07;;;5.35;;
54157;SDS011;40065;49.894;10.358;2022-08-19T21:28:38;8.18;;;6.30;;
54157;SDS011;40065;49.894;10.358;2022-08-19T21:33:40;7.82;;;6.10;;
54157;SDS011;40065;49.894;10.358;2022-08-19T21:38:42;7.22;;;5.88;;
54157;SDS011;40065;49.894;10.358;2022-08-19T21:43:44;7.47;;;5.90;;
54157;SDS011;40065;49.894;10.358;2022-08-19T21:48:46;7.97;;;6.35;;
54157;SDS011;40065;49.894;10.358;2022-08-19T21:53:48;8.77;;;6.28;;
54157;SDS011;40065;49.894;10.358;2022-08-19T21:58:53;6.07;;;5.47;;
54157;SDS011;40065;49.894;10.358;2022-08-19T22:03:56;6.03;;;5.43;;
54157;SDS011;40065;49.894;10.358;2022-08-19T22:08:58;7.28;;;5.80;;
54157;SDS011;40065;49.894;10.358;2022-08-19T22:14:00;7.90;;;6.30;;
54157;SDS011;40065;49.894;10.358;2022-08-19T22:19:04;7.28;;;6.53;;
54157;SDS011;40065;49.894;10.358;2022-08-19T22:24:06;8.00;;;6.85;;
54157;SDS011;40065;49.894;10.358;2022-08-19T22:29:08;8.80;;;6.63;;
54157;SDS011;40065;49.894;10.358;2022-08-19T22:34:15;9.77;;;7.55;;
54157;SDS011;40065;49.894;10.358;2022-08-19T22:39:18;7.78;;;6.97;;
54157;SDS011;40065;49.894;10.358;2022-08-19T22:44:20;8.35;;;6.28;;
54157;SDS011;40065;49.894;10.358;2022-08-19T22:49:22;8.77;;;7.68;;
54157;SDS011;40065;49.894;10.358;2022-08-19T22:54:24;8.80;;;7.40;;
54157;SDS011;40065;49.894;10.358;2022-08-19T22:59:25;6.78;;;6.07;;
54157;SDS011;40065;49.894;10.358;2022-08-19T23:04:27;7.93;;;5.88;;
54157;SDS011;40065;49.894;10.358;2022-08-19T23:09:29;6.53;;;5.70;;
54157;SDS011;40065;49.894;10.358;2022-08-19T23:14:31;5.88;;;5.20;;
54157;SDS011;40065;49.894;10.358;2022-08-19T23:19:33;6.30;;;5.65;;
54157;SDS011;40065;49.894;10.358;2022-08-19T23:24:35;5.78;;;5.18;;
54157;SDS011;40065;49.894;10.358;2022-08-19T23:29:38;6.63;;;5.10;;
54157;SDS011;40065;49.894;10.358;2022-08-19T23:34:59;5.55;;;4.90;;
54157;SDS011;40065;49.894;10.358;2022-08-19T23:40:01;5.75;;;5.15;;
54157;SDS011;40065;49.894;10.358;2022-08-19T23:45:04;7.03;;;6.00;;
54157;SDS011;40065;49.894;10.358;2022-08-19T23:50:07;6.65;;;4.93;;
54157;SDS011;40065;49.894;10.358;2022-08-19T23:55:10;5.38;;;4.70;;
